sensor_id;sensor_type;location;lat;lon;timestamp;temperature;humidity
7498;DHT22;3790;48.806;9.140;2023-08-06T00:01:56;15.00;99.90
7498;DHT22;3790;48.806;9.140;2023-08-06T00:06:57;15.10;99.90
7498;DHT22;3790;48.806;9.140;2023-08-06T00:11:57;15.20;99.90
7498;DHT22;3790;48.806;9.140;2023-08-06T00:16:58;15.10;99.90
7498;DHT22;3790;48.806;9.140;2023-08-06T00:21:58;15.10;99.90
7498;DHT22;3790;48.806;9.140;2023-08-06T00:26:59;14.80;99.90
7498;DHT22;3790;48.806;9.140;2023-08-06T00:31:59;14.60;99.90
7498;DHT22;3790;48.806;9.140;2023-08-06T00:37:00;14.30;99.90
7498;DHT22;3790;48.806;9.140;2023-08-06T00:42:00;14.20;99.90
7498;DHT22;3790;48.806;9.140;2023-08-06T00:47:02;14.20;99.90
7498;DHT22;3790;48.806;9.140;2023-08-06T00:52:04;14.10;99.90
7498;DHT22;3790;48.806;9.140;2023-08-06T00:57:07;14.20;99.90
7498;DHT22;3790;48.806;9.140;2023-08-06T01:02:08;14.30;99.90
7498;DHT22;3790;48.806;9.140;2023-08-06T01:07:20;14.30;99.90
7498;DHT22;3790;48.806;9.140;2023-08-06T01:12:45;14.30;99.90
7498;DHT22;3790;48.806;9.140;2023-08-06T01:17:48;14.10;99.90
7498;DHT22;3790;48.806;9.140;2023-08-06T01:22:48;13.90;99.90
7498;DHT22;3790;48.806;9.140;2023-08-06T01:27:49;13.90;99.90
7498;DHT22;3790;48.806;9.140;2023-08-06T01:32:54;13.90;99.90
7498;DHT22;3790;48.806;9.140;2023-08-06T01:37:59;14.00;99.90
7498;DHT22;3790;48.806;9.140;2023-08-06T01:43:00;14.20;99.90
7498;DHT22;3790;48.806;9.140;2023-08-06T01:48:00;14.30;99.90
7498;DHT22;3790;48.806;9.140;2023-08-06T01:53:01;14.30;99.90
7498;DHT22;3790;48.806;9.140;2023-08-06T01:58:01;14.30;99.90
7498;DHT22;3790;48.806;9.140;2023-08-06T02:03:02;14.30;99.90
7498;DHT22;3790;48.806;9.140;2023-08-06T02:08:02;14.40;99.90
7498;DHT22;3790;48.806;9.140;2023-08-06T02:13:03;14.30;99.90
7498;DHT22;3790;48.806;9.140;2023-08-06T02:18:03;14.20;99.90
7498;DHT22;3790;48.806;9.140;2023-08-06T02:23:04;14.10;99.90
7498;DHT22;3790;48.806;9.140;2023-08-06T02:28:04;14.10;99.90
7498;DHT22;3790;48.806;9.140;2023-08-06T02:33:05;14.00;99.90
7498;DHT22;3790;48.806;9.140;2023-08-06T02:38:05;13.90;99.90
7498;DHT22;3790;48.806;9.140;2023-08-06T02:43:08;13.90;99.90
7498;DHT22;3790;48.806;9.140;2023-08-06T02:48:09;13.90;99.90
7498;DHT22;3790;48.806;9.140;2023-08-06T02:53:11;13.80;99.90
7498;DHT22;3790;48.806;9.140;2023-08-06T02:58:11;13.80;99.90
7498;DHT22;3790;48.806;9.140;2023-08-06T03:03:12;13.80;99.90
7498;DHT22;3790;48.806;9.140;2023-08-06T03:08:12;13.70;99.90
7498;DHT22;3790;48.806;9.140;2023-08-06T03:13:13;13.70;99.90
7498;DHT22;3790;48.806;9.140;2023-08-06T03:18:13;13.70;99.90
7498;DHT22;3790;48.806;9.140;2023-08-06T03:23:14;13.80;99.90
7498;DHT22;3790;48.806;9.140;2023-08-06T03:28:14;13.90;99.90
7498;DHT22;3790;48.806;9.140;2023-08-06T03:33:15;14.00;99.90
7498;DHT22;3790;48.806;9.140;2023-08-06T03:38:15;14.00;99.90
7498;DHT22;3790;48.806;9.140;2023-08-06T03:43:16;14.00;99.90
7498;DHT22;3790;48.806;9.140;2023-08-06T03:48:17;13.80;99.90
7498;DHT22;3790;48.806;9.140;2023-08-06T03:53:17;13.80;99.90
7498;DHT22;3790;48.806;9.140;2023-08-06T03:58:18;13.90;99.90
7498;DHT22;3790;48.806;9.140;2023-08-06T04:03:18;13.90;99.90
7498;DHT22;3790;48.806;9.140;2023-08-06T04:08:19;13.90;99.90
7498;DHT22;3790;48.806;9.140;2023-08-06T04:13:19;13.90;99.90
7498;DHT22;3790;48.806;9.140;2023-08-06T04:18:20;14.10;99.90
7498;DHT22;3790;48.806;9.140;2023-08-06T04:23:21;13.90;99.90
7498;DHT22;3790;48.806;9.140;2023-08-06T04:28:21;13.90;99.90
7498;DHT22;3790;48.806;9.140;2023-08-06T04:33:22;13.90;99.90
7498;DHT22;3790;48.806;9.140;2023-08-06T04:38:26;13.90;99.90
7498;DHT22;3790;48.806;9.140;2023-08-06T04:43:26;14.10;99.90
7498;DHT22;3790;48.806;9.140;2023-08-06T04:48:27;14.30;99.90
7498;DHT22;3790;48.806;9.140;2023-08-06T04:53:27;14.20;99.90
7498;DHT22;3790;48.806;9.140;2023-08-06T04:58:28;14.10;99.90
7498;DHT22;3790;48.806;9.140;2023-08-06T05:03:28;13.90;99.90
7498;DHT22;3790;48.806;9.140;2023-08-06T05:08:29;13.80;99.90
7498;DHT22;3790;48.806;9.140;2023-08-06T05:13:30;13.90;99.90
7498;DHT22;3790;48.806;9.140;2023-08-06T05:18:30;14.10;99.90
7498;DHT22;3790;48.806;9.140;2023-08-06T05:23:31;15.00;99.90
7498;DHT22;3790;48.806;9.140;2023-08-06T05:28:31;17.70;99.90
7498;DHT22;3790;48.806;9.140;2023-08-06T05:33:32;18.70;99.90
7498;DHT22;3790;48.806;9.140;2023-08-06T05:38:32;17.20;99.90
7498;DHT22;3790;48.806;9.140;2023-08-06T05:43:33;16.70;99.90
7498;DHT22;3790;48.806;9.140;2023-08-06T05:48:33;16.00;99.90
7498;DHT22;3790;48.806;9.140;2023-08-06T05:53:34;15.70;99.90
7498;DHT22;3790;48.806;9.140;2023-08-06T05:58:34;15.30;99.90
7498;DHT22;3790;48.806;9.140;2023-08-06T06:03:35;14.90;99.90
7498;DHT22;3790;48.806;9.140;2023-08-06T06:08:35;14.70;99.90
7498;DHT22;3790;48.806;9.140;2023-08-06T06:13:36;14.60;99.90
7498;DHT22;3790;48.806;9.140;2023-08-06T06:18:37;14.50;99.90
7498;DHT22;3790;48.806;9.140;2023-08-06T06:23:37;14.40;99.90
7498;DHT22;3790;48.806;9.140;2023-08-06T06:28:38;14.50;99.90
7498;DHT22;3790;48.806;9.140;2023-08-06T06:33:38;14.30;99.90
7498;DHT22;3790;48.806;9.140;2023-08-06T06:38:39;14.20;99.90
7498;DHT22;3790;48.806;9.140;2023-08-06T06:43:39;14.30;99.90
7498;DHT22;3790;48.806;9.140;2023-08-06T06:48:40;14.50;99.90
7498;DHT22;3790;48.806;9.140;2023-08-06T06:53:41;14.70;99.90
7498;DHT22;3790;48.806;9.140;2023-08-06T06:58:41;14.90;99.90
7498;DHT22;3790;48.806;9.140;2023-08-06T07:03:42;14.80;99.90
7498;DHT22;3790;48.806;9.140;2023-08-06T07:08:43;14.70;99.90
7498;DHT22;3790;48.806;9.140;2023-08-06T07:13:43;14.80;99.90
7498;DHT22;3790;48.806;9.140;2023-08-06T07:18:44;14.70;99.90
7498;DHT22;3790;48.806;9.140;2023-08-06T07:23:45;14.70;99.90
7498;DHT22;3790;48.806;9.140;2023-08-06T07:28:45;14.70;99.90
7498;DHT22;3790;48.806;9.140;2023-08-06T07:33:46;14.40;99.90
7498;DHT22;3790;48.806;9.140;2023-08-06T07:38:46;14.30;99.90
7498;DHT22;3790;48.806;9.140;2023-08-06T07:43:49;14.50;99.90
7498;DHT22;3790;48.806;9.140;2023-08-06T07:48:49;14.60;99.90
7498;DHT22;3790;48.806;9.140;2023-08-06T07:53:50;14.60;99.90
7498;DHT22;3790;48.806;9.140;2023-08-06T07:58:50;14.70;99.90
7498;DHT22;3790;48.806;9.140;2023-08-06T08:03:51;14.80;99.90
7498;DHT22;3790;48.806;9.140;2023-08-06T08:08:52;15.00;99.90
7498;DHT22;3790;48.806;9.140;2023-08-06T08:13:52;15.40;99.90
7498;DHT22;3790;48.806;9.140;2023-08-06T08:18:53;15.70;99.90
7498;DHT22;3790;48.806;9.140;2023-08-06T08:23:53;16.00;99.90
7498;DHT22;3790;48.806;9.140;2023-08-06T08:28:54;16.10;99.90
7498;DHT22;3790;48.806;9.140;2023-08-06T08:33:54;16.10;99.90
7498;DHT22;3790;48.806;9.140;2023-08-06T08:38:55;16.40;99.90
7498;DHT22;3790;48.806;9.140;2023-08-06T08:43:56;16.30;99.90
7498;DHT22;3790;48.806;9.140;2023-08-06T08:48:59;16.00;99.90
7498;DHT22;3790;48.806;9.140;2023-08-06T08:54:03;16.00;99.90
7498;DHT22;3790;48.806;9.140;2023-08-06T08:59:03;15.80;99.90
7498;DHT22;3790;48.806;9.140;2023-08-06T09:04:04;15.40;99.90
7498;DHT22;3790;48.806;9.140;2023-08-06T09:09:11;15.30;99.90
7498;DHT22;3790;48.806;9.140;2023-08-06T09:14:12;15.70;99.90
7498;DHT22;3790;48.806;9.140;2023-08-06T09:19:13;15.40;99.90
7498;DHT22;3790;48.806;9.140;2023-08-06T09:24:15;15.50;99.90
7498;DHT22;3790;48.806;9.140;2023-08-06T09:29:16;15.70;99.90
7498;DHT22;3790;48.806;9.140;2023-08-06T09:34:18;15.50;99.90
7498;DHT22;3790;48.806;9.140;2023-08-06T09:39:29;15.70;99.90
7498;DHT22;3790;48.806;9.140;2023-08-06T09:44:32;15.40;99.90
7498;DHT22;3790;48.806;9.140;2023-08-06T09:54:37;15.30;99.90
7498;DHT22;3790;48.806;9.140;2023-08-06T09:59:38;15.40;99.90
7498;DHT22;3790;48.806;9.140;2023-08-06T10:04:44;15.40;99.90
7498;DHT22;3790;48.806;9.140;2023-08-06T10:09:45;15.20;99.90
7498;DHT22;3790;48.806;9.140;2023-08-06T10:14:45;15.20;99.90
7498;DHT22;3790;48.806;9.140;2023-08-06T10:19:48;15.50;99.90
7498;DHT22;3790;48.806;9.140;2023-08-06T10:24:49;15.50;99.90
7498;DHT22;3790;48.806;9.140;2023-08-06T10:29:50;15.30;99.90
7498;DHT22;3790;48.806;9.140;2023-08-06T10:34:58;15.20;99.90
7498;DHT22;3790;48.806;9.140;2023-08-06T10:40:00;15.30;99.90
7498;DHT22;3790;48.806;9.140;2023-08-06T10:45:15;15.50;99.90
7498;DHT22;3790;48.806;9.140;2023-08-06T10:50:17;15.80;99.90
7498;DHT22;3790;48.806;9.140;2023-08-06T10:55:29;15.70;99.90
7498;DHT22;3790;48.806;9.140;2023-08-06T11:00:30;15.60;99.90
7498;DHT22;3790;48.806;9.140;2023-08-06T11:05:30;15.30;99.90
7498;DHT22;3790;48.806;9.140;2023-08-06T11:10:33;15.00;99.90
7498;DHT22;3790;48.806;9.140;2023-08-06T11:15:34;14.80;99.90
7498;DHT22;3790;48.806;9.140;2023-08-06T11:20:35;14.70;99.90
7498;DHT22;3790;48.806;9.140;2023-08-06T11:25:37;14.90;99.90
7498;DHT22;3790;48.806;9.140;2023-08-06T11:30:38;14.70;99.90
7498;DHT22;3790;48.806;9.140;2023-08-06T11:35:39;14.80;99.90
7498;DHT22;3790;48.806;9.140;2023-08-06T11:40:40;15.00;99.90
7498;DHT22;3790;48.806;9.140;2023-08-06T11:45:41;14.90;99.90
7498;DHT22;3790;48.806;9.140;2023-08-06T11:50:44;14.70;99.90
7498;DHT22;3790;48.806;9.140;2023-08-06T11:55:45;14.40;99.90
7498;DHT22;3790;48.806;9.140;2023-08-06T12:00:45;14.30;99.90
7498;DHT22;3790;48.806;9.140;2023-08-06T12:05:46;14.10;99.90
7498;DHT22;3790;48.806;9.140;2023-08-06T12:10:47;13.90;99.90
7498;DHT22;3790;48.806;9.140;2023-08-06T12:15:51;13.70;99.90
7498;DHT22;3790;48.806;9.140;2023-08-06T12:20:53;13.80;99.90
7498;DHT22;3790;48.806;9.140;2023-08-06T12:25:59;13.90;99.90
7498;DHT22;3790;48.806;9.140;2023-08-06T12:31:03;14.00;99.90
7498;DHT22;3790;48.806;9.140;2023-08-06T12:36:04;14.20;99.90
7498;DHT22;3790;48.806;9.140;2023-08-06T12:41:04;14.50;99.90
7498;DHT22;3790;48.806;9.140;2023-08-06T12:46:05;14.80;99.90
7498;DHT22;3790;48.806;9.140;2023-08-06T12:51:05;15.50;99.90
7498;DHT22;3790;48.806;9.140;2023-08-06T12:56:06;16.10;99.90
7498;DHT22;3790;48.806;9.140;2023-08-06T13:01:06;16.90;99.90
7498;DHT22;3790;48.806;9.140;2023-08-06T13:06:07;16.20;99.90
7498;DHT22;3790;48.806;9.140;2023-08-06T13:11:10;16.10;99.90
7498;DHT22;3790;48.806;9.140;2023-08-06T13:16:13;16.00;99.90
7498;DHT22;3790;48.806;9.140;2023-08-06T13:21:14;15.80;99.90
7498;DHT22;3790;48.806;9.140;2023-08-06T13:26:14;15.80;99.90
7498;DHT22;3790;48.806;9.140;2023-08-06T13:31:16;15.70;99.90
7498;DHT22;3790;48.806;9.140;2023-08-06T13:36:17;16.20;99.90
7498;DHT22;3790;48.806;9.140;2023-08-06T13:41:17;16.30;99.90
7498;DHT22;3790;48.806;9.140;2023-08-06T13:46:18;16.10;99.90
7498;DHT22;3790;48.806;9.140;2023-08-06T13:51:20;15.90;99.90
7498;DHT22;3790;48.806;9.140;2023-08-06T13:56:20;15.90;99.90
7498;DHT22;3790;48.806;9.140;2023-08-06T14:01:23;16.00;99.90
7498;DHT22;3790;48.806;9.140;2023-08-06T14:06:24;15.90;99.90
7498;DHT22;3790;48.806;9.140;2023-08-06T14:11:24;15.50;99.90
7498;DHT22;3790;48.806;9.140;2023-08-06T14:16:25;15.30;99.90
7498;DHT22;3790;48.806;9.140;2023-08-06T14:21:25;15.30;99.90
7498;DHT22;3790;48.806;9.140;2023-08-06T14:26:26;15.50;99.90
7498;DHT22;3790;48.806;9.140;2023-08-06T14:31:27;15.80;99.90
7498;DHT22;3790;48.806;9.140;2023-08-06T14:36:27;16.10;99.90
7498;DHT22;3790;48.806;9.140;2023-08-06T14:41:28;16.10;99.90
7498;DHT22;3790;48.806;9.140;2023-08-06T14:46:28;16.30;99.90
7498;DHT22;3790;48.806;9.140;2023-08-06T14:51:29;16.00;99.90
7498;DHT22;3790;48.806;9.140;2023-08-06T14:56:29;15.50;99.90
7498;DHT22;3790;48.806;9.140;2023-08-06T15:01:30;15.30;99.90
7498;DHT22;3790;48.806;9.140;2023-08-06T15:06:31;14.90;99.90
7498;DHT22;3790;48.806;9.140;2023-08-06T15:11:31;14.50;99.90
7498;DHT22;3790;48.806;9.140;2023-08-06T15:16:33;14.90;99.90
7498;DHT22;3790;48.806;9.140;2023-08-06T15:21:34;15.00;99.90
7498;DHT22;3790;48.806;9.140;2023-08-06T15:26:35;15.30;99.90
7498;DHT22;3790;48.806;9.140;2023-08-06T15:31:39;15.70;99.90
7498;DHT22;3790;48.806;9.140;2023-08-06T15:36:40;15.80;99.90
7498;DHT22;3790;48.806;9.140;2023-08-06T15:41:40;16.20;99.90
7498;DHT22;3790;48.806;9.140;2023-08-06T15:46:41;16.50;99.90
7498;DHT22;3790;48.806;9.140;2023-08-06T15:51:42;16.80;99.90
7498;DHT22;3790;48.806;9.140;2023-08-06T15:56:43;16.40;99.90
7498;DHT22;3790;48.806;9.140;2023-08-06T16:01:45;16.40;99.90
7498;DHT22;3790;48.806;9.140;2023-08-06T16:06:46;16.30;99.90
7498;DHT22;3790;48.806;9.140;2023-08-06T16:11:47;16.00;99.90
7498;DHT22;3790;48.806;9.140;2023-08-06T16:16:47;15.70;99.90
7498;DHT22;3790;48.806;9.140;2023-08-06T16:21:48;15.60;99.90
7498;DHT22;3790;48.806;9.140;2023-08-06T16:26:48;15.80;99.90
7498;DHT22;3790;48.806;9.140;2023-08-06T16:31:49;15.40;99.90
7498;DHT22;3790;48.806;9.140;2023-08-06T16:36:50;15.20;99.90
7498;DHT22;3790;48.806;9.140;2023-08-06T16:41:50;14.80;99.90
7498;DHT22;3790;48.806;9.140;2023-08-06T16:46:51;14.70;99.90
7498;DHT22;3790;48.806;9.140;2023-08-06T16:51:52;14.60;99.90
7498;DHT22;3790;48.806;9.140;2023-08-06T16:56:53;14.10;99.90
7498;DHT22;3790;48.806;9.140;2023-08-06T17:01:54;13.50;99.90
7498;DHT22;3790;48.806;9.140;2023-08-06T17:06:55;13.30;99.90
7498;DHT22;3790;48.806;9.140;2023-08-06T17:11:56;13.30;99.90
7498;DHT22;3790;48.806;9.140;2023-08-06T17:16:57;13.40;99.90
7498;DHT22;3790;48.806;9.140;2023-08-06T17:21:57;13.60;99.90
7498;DHT22;3790;48.806;9.140;2023-08-06T17:26:58;13.50;99.90
7498;DHT22;3790;48.806;9.140;2023-08-06T17:31:59;13.40;99.90
7498;DHT22;3790;48.806;9.140;2023-08-06T17:37:00;13.30;99.90
7498;DHT22;3790;48.806;9.140;2023-08-06T17:42:00;13.50;99.90
7498;DHT22;3790;48.806;9.140;2023-08-06T17:47:03;13.40;99.90
7498;DHT22;3790;48.806;9.140;2023-08-06T17:52:04;13.40;99.90
7498;DHT22;3790;48.806;9.140;2023-08-06T17:57:05;13.30;99.90
7498;DHT22;3790;48.806;9.140;2023-08-06T18:02:06;13.40;99.90
7498;DHT22;3790;48.806;9.140;2023-08-06T18:07:06;13.30;99.90
7498;DHT22;3790;48.806;9.140;2023-08-06T18:12:07;13.20;99.90
7498;DHT22;3790;48.806;9.140;2023-08-06T18:17:11;13.20;99.90
7498;DHT22;3790;48.806;9.140;2023-08-06T18:22:11;13.20;99.90
7498;DHT22;3790;48.806;9.140;2023-08-06T18:27:12;13.20;99.90
7498;DHT22;3790;48.806;9.140;2023-08-06T18:32:17;13.20;99.90
7498;DHT22;3790;48.806;9.140;2023-08-06T18:37:18;13.00;99.90
7498;DHT22;3790;48.806;9.140;2023-08-06T18:42:19;12.90;99.90
7498;DHT22;3790;48.806;9.140;2023-08-06T18:47:20;12.80;99.90
7498;DHT22;3790;48.806;9.140;2023-08-06T18:52:21;12.80;99.90
7498;DHT22;3790;48.806;9.140;2023-08-06T18:57:21;12.80;99.90
7498;DHT22;3790;48.806;9.140;2023-08-06T19:02:23;12.80;99.90
7498;DHT22;3790;48.806;9.140;2023-08-06T19:07:23;12.90;99.90
7498;DHT22;3790;48.806;9.140;2023-08-06T19:12:24;12.90;99.90
7498;DHT22;3790;48.806;9.140;2023-08-06T19:17:25;13.00;99.90
7498;DHT22;3790;48.806;9.140;2023-08-06T19:22:25;13.00;99.90
7498;DHT22;3790;48.806;9.140;2023-08-06T19:27:26;13.10;99.90
7498;DHT22;3790;48.806;9.140;2023-08-06T19:32:26;13.10;99.90
7498;DHT22;3790;48.806;9.140;2023-08-06T19:37:27;13.10;99.90
7498;DHT22;3790;48.806;9.140;2023-08-06T19:42:27;13.20;99.90
7498;DHT22;3790;48.806;9.140;2023-08-06T19:47:28;13.30;99.90
7498;DHT22;3790;48.806;9.140;2023-08-06T19:52:28;13.20;99.90
7498;DHT22;3790;48.806;9.140;2023-08-06T19:57:29;13.30;99.90
7498;DHT22;3790;48.806;9.140;2023-08-06T20:02:29;13.30;99.90
7498;DHT22;3790;48.806;9.140;2023-08-06T20:07:31;13.30;99.90
7498;DHT22;3790;48.806;9.140;2023-08-06T20:12:31;13.30;99.90
7498;DHT22;3790;48.806;9.140;2023-08-06T20:17:32;13.30;99.90
7498;DHT22;3790;48.806;9.140;2023-08-06T20:22:33;13.30;99.90
7498;DHT22;3790;48.806;9.140;2023-08-06T20:27:33;13.10;99.90
7498;DHT22;3790;48.806;9.140;2023-08-06T20:32:34;13.00;99.90
7498;DHT22;3790;48.806;9.140;2023-08-06T20:37:35;12.90;99.90
7498;DHT22;3790;48.806;9.140;2023-08-06T20:42:37;12.70;99.90
7498;DHT22;3790;48.806;9.140;2023-08-06T20:47:37;12.40;99.90
7498;DHT22;3790;48.806;9.140;2023-08-06T20:52:38;12.30;99.90
7498;DHT22;3790;48.806;9.140;2023-08-06T20:57:38;12.20;99.90
7498;DHT22;3790;48.806;9.140;2023-08-06T21:02:39;12.10;99.90
7498;DHT22;3790;48.806;9.140;2023-08-06T21:07:39;12.00;99.90
7498;DHT22;3790;48.806;9.140;2023-08-06T21:12:40;12.00;99.90
7498;DHT22;3790;48.806;9.140;2023-08-06T21:17:40;11.90;99.90
7498;DHT22;3790;48.806;9.140;2023-08-06T21:22:42;11.90;99.90
7498;DHT22;3790;48.806;9.140;2023-08-06T21:27:43;11.70;99.90
7498;DHT22;3790;48.806;9.140;2023-08-06T21:32:47;11.70;99.90
7498;DHT22;3790;48.806;9.140;2023-08-06T21:37:48;11.70;99.90
7498;DHT22;3790;48.806;9.140;2023-08-06T21:42:48;11.70;99.90
7498;DHT22;3790;48.806;9.140;2023-08-06T21:47:49;11.60;99.90
7498;DHT22;3790;48.806;9.140;2023-08-06T21:52:49;11.60;99.90
7498;DHT22;3790;48.806;9.140;2023-08-06T21:57:50;11.60;99.90
7498;DHT22;3790;48.806;9.140;2023-08-06T22:02:50;11.60;99.90
7498;DHT22;3790;48.806;9.140;2023-08-06T22:07:51;11.60;99.90
7498;DHT22;3790;48.806;9.140;2023-08-06T22:12:52;11.60;99.90
7498;DHT22;3790;48.806;9.140;2023-08-06T22:17:52;11.60;99.90
7498;DHT22;3790;48.806;9.140;2023-08-06T22:22:53;11.60;99.90
7498;DHT22;3790;48.806;9.140;2023-08-06T22:27:53;11.60;99.90
7498;DHT22;3790;48.806;9.140;2023-08-06T22:32:54;11.60;99.90
7498;DHT22;3790;48.806;9.140;2023-08-06T22:37:54;11.70;99.90
7498;DHT22;3790;48.806;9.140;2023-08-06T22:42:55;11.60;99.90
7498;DHT22;3790;48.806;9.140;2023-08-06T22:47:55;11.60;99.90
7498;DHT22;3790;48.806;9.140;2023-08-06T22:52:56;11.50;99.90
7498;DHT22;3790;48.806;9.140;2023-08-06T22:57:57;11.50;99.90
7498;DHT22;3790;48.806;9.140;2023-08-06T23:02:57;11.50;99.90
7498;DHT22;3790;48.806;9.140;2023-08-06T23:07:58;11.50;99.90
7498;DHT22;3790;48.806;9.140;2023-08-06T23:12:59;11.50;99.90
7498;DHT22;3790;48.806;9.140;2023-08-06T23:17:59;11.50;99.90
7498;DHT22;3790;48.806;9.140;2023-08-06T23:22:59;11.50;99.90
7498;DHT22;3790;48.806;9.140;2023-08-06T23:28:00;11.50;99.90
7498;DHT22;3790;48.806;9.140;2023-08-06T23:33:00;11.50;99.90
7498;DHT22;3790;48.806;9.140;2023-08-06T23:38:01;11.60;99.90
7498;DHT22;3790;48.806;9.140;2023-08-06T23:43:05;11.50;99.90
7498;DHT22;3790;48.806;9.140;2023-08-06T23:48:05;11.50;99.90
7498;DHT22;3790;48.806;9.140;2023-08-06T23:53:06;11.60;99.90
7498;DHT22;3790;48.806;9.140;2023-08-06T23:58:06;11.60;99.90
